Time;durP1;ratioP1;P1;durP2;ratioP2;P2;SDS_P1;SDS_P2;PMS_P1;PMS_P2;Temp;Humidity;BMP_temperature;BMP_pressure;BME280_temperature;BME280_humidity;BME280_pressure;Samples;Min_cycle;Max_cycle;Signal;HPM_P1;HPM_P2
2023/07/13 00:01:55;;;;;;;10.57;4.70;;;17.80;94.70;;;;;;5060946;28;20739;-61
2023/07/13 00:04:24;;;;;;;13.53;4.23;;;17.70;94.80;;;;;;5060736;28;20483;-60
2023/07/13 00:06:52;;;;;;;9.37;4.90;;;17.60;95.00;;;;;;5057744;28;20979;-61
2023/07/13 00:09:20;;;;;;;6.23;4.33;;;17.50;95.30;;;;;;5037176;28;20474;-60
2023/07/13 00:11:54;;;;;;;9.47;4.57;;;17.30;95.40;;;;;;5033685;28;20905;-61
2023/07/13 00:14:21;;;;;;;7.30;4.07;;;17.30;95.40;;;;;;5035306;28;20480;-60
2023/07/13 00:16:49;;;;;;;23.90;4.23;;;17.20;95.50;;;;;;5027206;28;20489;-61
2023/07/13 00:19:16;;;;;;;15.90;5.50;;;17.10;95.80;;;;;;5041670;28;20819;-61
2023/07/13 00:21:43;;;;;;;5.77;4.00;;;17.00;96.30;;;;;;5020339;28;20476;-61
2023/07/13 00:24:13;;;;;;;10.00;5.10;;;16.90;96.40;;;;;;5026990;28;20487;-60
2023/07/13 00:26:40;;;;;;;5.30;4.47;;;16.90;96.10;;;;;;5018731;28;20487;-61
2023/07/13 00:29:08;;;;;;;13.47;7.07;;;16.90;96.10;;;;;;5026055;28;20480;-61
2023/07/13 00:31:36;;;;;;;14.07;4.50;;;16.90;95.90;;;;;;5032226;28;20472;-61
2023/07/13 00:34:04;;;;;;;14.10;6.73;;;16.90;95.80;;;;;;5040250;28;20527;-61
2023/07/13 00:36:32;;;;;;;12.67;5.10;;;16.80;96.10;;;;;;5026961;28;20480;-61
2023/07/13 00:38:58;;;;;;;16.97;5.87;;;16.80;95.90;;;;;;5025961;28;20822;-61
2023/07/13 00:41:26;;;;;;;7.37;4.37;;;16.80;96.10;;;;;;5032496;28;20478;-61
2023/07/13 00:43:52;;;;;;;11.97;6.30;;;16.70;96.40;;;;;;5045382;28;20500;-61
2023/07/13 00:46:24;;;;;;;16.73;7.30;;;16.60;96.30;;;;;;5027744;28;20840;-61
2023/07/13 00:48:53;;;;;;;12.63;6.87;;;16.40;96.90;;;;;;5028532;28;20471;-60
2023/07/13 00:51:25;;;;;;;22.37;8.90;;;16.30;97.10;;;;;;5027794;28;20574;-61
2023/07/13 00:53:55;;;;;;;14.20;6.23;;;16.30;97.00;;;;;;5014331;28;20477;-61
2023/07/13 00:56:22;;;;;;;17.87;5.70;;;16.40;97.00;;;;;;5021500;28;20472;-61
2023/07/13 00:58:49;;;;;;;11.13;5.77;;;16.20;97.20;;;;;;5024298;28;20484;-61
2023/07/13 01:01:16;;;;;;;25.37;10.17;;;16.10;97.40;;;;;;5036373;28;20472;-61
2023/07/13 01:03:43;;;;;;;16.50;8.50;;;16.10;97.20;;;;;;5029012;28;20548;-61
2023/07/13 01:06:10;;;;;;;18.40;8.87;;;16.20;97.10;;;;;;5019153;28;21177;-61
2023/07/13 01:08:39;;;;;;;13.63;6.80;;;16.20;97.00;;;;;;5027270;28;20479;-61
2023/07/13 01:11:07;;;;;;;34.27;11.10;;;16.30;97.30;;;;;;5037240;28;20476;-61
2023/07/13 01:13:34;;;;;;;23.90;7.13;;;14.20;95.90;;;;;;5026495;28;20854;-61
2023/07/13 01:16:07;;;;;;;15.53;7.90;;;16.40;96.90;;;;;;5025543;28;20484;-61
2023/07/13 01:18:34;;;;;;;15.13;6.83;;;16.40;96.90;;;;;;5026137;28;20486;-61
2023/07/13 01:21:05;;;;;;;18.77;6.83;;;16.50;97.00;;;;;;5021944;28;20488;-60
2023/07/13 01:23:33;;;;;;;17.87;7.13;;;16.50;97.30;;;;;;5024170;28;21076;-61
2023/07/13 01:26:00;;;;;;;13.13;6.50;;;16.50;97.20;;;;;;5036649;28;21021;-61
2023/07/13 01:28:29;;;;;;;14.97;6.30;;;16.50;97.20;;;;;;5023300;28;20472;-61
2023/07/13 01:30:57;;;;;;;25.13;10.00;;;16.50;97.50;;;;;;5020981;28;20492;-60
2023/07/13 01:33:25;;;;;;;16.53;5.50;;;16.40;97.60;;;;;;5020010;28;20996;-60
2023/07/13 01:35:52;;;;;;;20.83;6.60;;;16.40;97.50;;;;;;5021410;28;20473;-60
2023/07/13 01:38:23;;;;;;;30.77;10.50;;;16.40;97.40;;;;;;5026980;28;20468;-61
2023/07/13 01:40:50;;;;;;;10.97;4.80;;;16.40;97.30;;;;;;5018209;28;20573;-61
2023/07/13 01:43:17;;;;;;;26.53;10.30;;;16.40;97.10;;;;;;5023072;28;20479;-61
2023/07/13 01:45:44;;;;;;;11.17;5.70;;;16.30;97.10;;;;;;5020839;28;20491;-61
2023/07/13 01:48:11;;;;;;;27.03;10.20;;;16.40;97.30;;;;;;5045047;28;20488;-61
2023/07/13 01:50:38;;;;;;;17.53;7.40;;;16.30;97.10;;;;;;5036172;28;20849;-61
2023/07/13 01:53:06;;;;;;;20.83;8.80;;;16.30;97.40;;;;;;5033562;28;20495;-61
2023/07/13 01:55:35;;;;;;;30.27;7.07;;;16.30;97.50;;;;;;5035356;28;20506;-61
2023/07/13 01:58:02;;;;;;;28.67;10.43;;;16.20;97.40;;;;;;5036498;28;20938;-61
2023/07/13 02:00:29;;;;;;;19.63;7.53;;;16.20;97.90;;;;;;5036590;28;20516;-61
2023/07/13 02:02:56;;;;;;;18.80;6.87;;;16.00;98.90;;;;;;5035734;28;20726;-61
2023/07/13 02:05:23;;;;;;;11.77;5.70;;;16.00;98.80;;;;;;5034627;28;20522;-61
2023/07/13 02:07:50;;;;;;;22.83;8.77;;;16.00;98.80;;;;;;5035927;28;20484;-61
2023/07/13 02:10:17;;;;;;;28.10;9.63;;;16.10;98.80;;;;;;5033967;28;20484;-62
2023/07/13 02:12:45;;;;;;;14.77;6.17;;;16.00;98.70;;;;;;5036590;28;20498;-62
2023/07/13 02:15:12;;;;;;;25.83;10.83;;;16.10;98.60;;;;;;5032271;28;20770;-61
2023/07/13 02:17:39;;;;;;;21.23;7.17;;;15.90;99.30;;;;;;5036867;28;20484;-62
2023/07/13 02:20:07;;;;;;;23.33;9.40;;;15.90;99.60;;;;;;5035405;28;20725;-62
2023/07/13 02:22:34;;;;;;;21.17;7.43;;;15.90;99.60;;;;;;5035299;28;20875;-62
2023/07/13 02:25:01;;;;;;;30.20;8.87;;;15.90;99.50;;;;;;5036346;28;21112;-61
2023/07/13 02:27:28;;;;;;;18.37;7.47;;;15.90;99.80;;;;;;5036650;28;21116;-61
2023/07/13 02:29:56;;;;;;;20.50;7.57;;;15.90;99.50;;;;;;5038495;28;20487;-61
2023/07/13 02:32:24;;;;;;;16.23;6.23;;;15.90;99.20;;;;;;5035129;28;20482;-61
2023/07/13 02:34:53;;;;;;;27.50;10.47;;;16.00;99.00;;;;;;5019936;28;20987;-61
2023/07/13 02:37:21;;;;;;;23.63;9.00;;;15.90;98.80;;;;;;5018077;28;20566;-61
2023/07/13 02:39:48;;;;;;;17.20;6.23;;;15.90;98.80;;;;;;5027172;28;20472;-60
2023/07/13 02:42:15;;;;;;;26.60;10.53;;;15.90;98.70;;;;;;5023010;28;20480;-60
2023/07/13 02:44:42;;;;;;;20.23;8.80;;;15.90;98.90;;;;;;5042076;28;20477;-61
2023/07/13 02:47:10;;;;;;;39.20;12.27;;;15.90;98.50;;;;;;5023583;28;20489;-60
2023/07/13 02:49:37;;;;;;;15.00;6.53;;;16.00;98.50;;;;;;5036044;28;20484;-61
2023/07/13 02:52:04;;;;;;;27.93;9.40;;;16.00;98.60;;;;;;5022818;28;20484;-61
2023/07/13 02:54:31;;;;;;;24.80;9.80;;;16.00;98.60;;;;;;5037580;28;20480;-61
2023/07/13 02:56:58;;;;;;;23.23;7.60;;;16.00;98.70;;;;;;5042148;28;21051;-61
2023/07/13 02:59:25;;;;;;;16.67;6.27;;;16.00;98.30;;;;;;5035957;28;20796;-61
2023/07/13 03:01:51;;;;;;;17.57;6.30;;;16.00;98.40;;;;;;5038218;28;20571;-61
2023/07/13 03:04:20;;;;;;;29.37;11.37;;;15.80;98.80;;;;;;5040226;28;20475;-61
2023/07/13 03:06:47;;;;;;;17.43;6.40;;;15.60;99.10;;;;;;5025952;28;20499;-61
2023/07/13 03:09:14;;;;;;;23.63;9.63;;;15.50;99.20;;;;;;5021984;28;20553;-61
2023/07/13 03:11:41;;;;;;;17.00;7.87;;;15.40;99.40;;;;;;5031508;28;20484;-61
2023/07/13 03:14:09;;;;;;;37.27;13.07;;;;;;;;;;5034611;28;20964;-61
2023/07/13 03:16:36;;;;;;;14.63;6.83;;;15.20;99.70;;;;;;5040716;28;20491;-61
2023/07/13 03:19:03;;;;;;;17.57;7.10;;;15.10;99.70;;;;;;5033952;28;20792;-60
2023/07/13 03:21:31;;;;;;;16.40;7.37;;;14.90;99.90;;;;;;5035380;28;20487;-61
2023/07/13 03:23:58;;;;;;;26.97;10.70;;;14.60;99.90;;;;;;5034501;28;21139;-60
2023/07/13 03:26:25;;;;;;;17.53;7.07;;;14.50;99.90;;;;;;5033854;28;20480;-61
2023/07/13 03:28:51;;;;;;;18.53;8.37;;;14.50;99.90;;;;;;5034388;28;20480;-60
2023/07/13 03:31:21;;;;;;;24.47;9.87;;;14.50;99.90;;;;;;5033561;28;20499;-60
2023/07/13 03:33:49;;;;;;;21.93;9.53;;;14.50;99.90;;;;;;5035315;28;20486;-61
2023/07/13 03:36:18;;;;;;;33.03;12.03;;;14.50;99.90;;;;;;5033589;28;21019;-60
2023/07/13 03:38:47;;;;;;;24.10;8.17;;;14.60;99.90;;;;;;5034849;28;20997;-61
2023/07/13 03:41:15;;;;;;;38.67;13.43;;;14.60;99.90;;;;;;5033862;28;20476;-61
2023/07/13 03:43:42;;;;;;;30.23;8.80;;;14.70;99.90;;;;;;5033417;28;20493;-61
2023/07/13 03:46:09;;;;;;;33.07;12.33;;;14.80;99.90;;;;;;5033536;28;20481;-61
2023/07/13 03:48:36;;;;;;;16.60;7.60;;;14.80;99.90;;;;;;5034181;28;20479;-60
2023/07/13 03:51:03;;;;;;;36.43;8.83;;;14.90;99.90;;;;;;5034087;28;20487;-61
2023/07/13 03:53:29;;;;;;;12.57;6.70;;;15.00;99.90;;;;;;5034925;28;20472;-61
2023/07/13 03:55:57;;;;;;;14.60;7.97;;;15.00;99.90;;;;;;5034088;28;20502;-61
2023/07/13 03:58:29;;;;;;;19.00;5.50;;;15.10;99.90;;;;;;5004085;28;20467;-61
2023/07/13 04:00:56;;;;;;;17.90;8.83;;;15.10;99.90;;;;;;5031087;28;21044;-61
2023/07/13 04:03:23;;;;;;;14.23;7.37;;;15.20;99.90;;;;;;5033508;28;20484;-61
2023/07/13 04:05:50;;;;;;;17.57;7.33;;;15.10;99.90;;;;;;5024280;28;20487;-61
2023/07/13 04:08:17;;;;;;;34.67;12.27;;;15.00;99.90;;;;;;5019060;28;20750;-61
2023/07/13 04:10:43;;;;;;;18.03;8.00;;;15.00;99.90;;;;;;5028488;28;21243;-61
2023/07/13 04:13:11;;;;;;;28.63;10.23;;;15.10;99.90;;;;;;5018856;28;20488;-61
2023/07/13 04:15:40;;;;;;;17.50;8.07;;;15.10;99.90;;;;;;5030011;28;20487;-60
2023/07/13 04:18:07;;;;;;;25.03;10.43;;;15.10;99.90;;;;;;5025665;28;20553;-60
2023/07/13 04:20:34;;;;;;;18.80;7.20;;;15.10;99.90;;;;;;5028987;28;20489;-61
2023/07/13 04:23:00;;;;;;;21.07;9.60;;;15.10;99.90;;;;;;5018732;28;20484;-61
2023/07/13 04:25:27;;;;;;;14.03;5.87;;;15.10;99.90;;;;;;5028944;28;20483;-61
2023/07/13 04:27:55;;;;;;;17.23;6.93;;;15.00;99.90;;;;;;5043899;28;20479;-61
2023/07/13 04:30:23;;;;;;;19.30;8.07;;;15.00;99.90;;;;;;5026839;28;20475;-61
2023/07/13 04:32:51;;;;;;;26.60;8.50;;;15.00;99.90;;;;;;5027378;28;20483;-61
2023/07/13 04:35:20;;;;;;;21.70;7.47;;;15.00;99.90;;;;;;5031275;28;21010;-62
2023/07/13 04:37:47;;;;;;;13.30;6.53;;;15.00;99.90;;;;;;5030600;28;20499;-61
2023/07/13 04:40:14;;;;;;;31.27;13.13;;;15.00;99.90;;;;;;5015850;28;20854;-61
2023/07/13 04:42:40;;;;;;;14.47;7.13;;;15.00;99.90;;;;;;5030497;28;20480;-61
2023/07/13 04:45:08;;;;;;;27.87;11.47;;;15.10;99.90;;;;;;5022306;28;20820;-61
2023/07/13 04:47:36;;;;;;;16.70;7.80;;;15.20;99.90;;;;;;5021782;28;20652;-61
2023/07/13 04:50:05;;;;;;;19.83;9.13;;;15.30;99.90;;;;;;5020531;28;20485;-61
2023/07/13 04:52:32;;;;;;;24.17;10.03;;;15.50;99.90;;;;;;5020715;28;20476;-61
2023/07/13 04:55:00;;;;;;;27.30;9.07;;;15.70;99.90;;;;;;5043408;28;20567;-61
2023/07/13 04:57:27;;;;;;;17.10;8.43;;;15.80;99.90;;;;;;5028318;28;20892;-61
2023/07/13 04:59:55;;;;;;;17.97;8.97;;;15.90;99.90;;;;;;5022179;28;20908;-61
2023/07/13 05:02:22;;;;;;;27.93;9.83;;;15.90;99.90;;;;;;5021358;28;20471;-61
2023/07/13 05:04:50;;;;;;;18.37;8.40;;;15.80;99.90;;;;;;5022798;28;21067;-61
2023/07/13 05:07:17;;;;;;;25.63;11.63;;;15.80;99.90;;;;;;5019830;28;20473;-61
2023/07/13 05:09:44;;;;;;;20.70;7.90;;;15.90;99.90;;;;;;5049037;28;20474;-61
2023/07/13 05:12:11;;;;;;;33.40;14.43;;;15.90;99.90;;;;;;5049175;28;20474;-61
2023/07/13 05:14:38;;;;;;;15.83;8.20;;;15.80;99.90;;;;;;5034853;28;20488;-61
2023/07/13 05:17:05;;;;;;;14.77;8.00;;;15.70;99.90;;;;;;5029232;28;20484;-61
2023/07/13 05:19:32;;;;;;;23.90;10.27;;;15.70;99.90;;;;;;5027441;28;20481;-61
2023/07/13 05:22:02;;;;;;;18.30;9.60;;;15.50;99.90;;;;;;5021890;28;20880;-61
2023/07/13 05:24:29;;;;;;;18.60;8.67;;;15.90;99.90;;;;;;5024149;28;20556;-61
2023/07/13 05:26:56;;;;;;;16.47;8.57;;;15.90;99.90;;;;;;5026878;28;20484;-61
2023/07/13 05:29:23;;;;;;;16.27;8.57;;;16.00;99.90;;;;;;5018209;28;20476;-61
2023/07/13 05:31:51;;;;;;;20.10;9.00;;;16.10;99.90;;;;;;5031664;28;20749;-61
2023/07/13 05:34:18;;;;;;;27.73;12.17;;;16.20;99.90;;;;;;5047578;28;20810;-61
2023/07/13 05:36:44;;;;;;;16.80;8.77;;;16.50;99.90;;;;;;5063934;28;20741;-61
2023/07/13 05:39:13;;;;;;;25.13;9.87;;;16.60;99.90;;;;;;5056965;28;20474;-61
2023/07/13 05:41:39;;;;;;;18.10;9.63;;;16.80;99.90;;;;;;5064612;28;20489;-61
2023/07/13 05:44:06;;;;;;;22.13;10.90;;;16.90;99.90;;;;;;5061481;28;20483;-61
2023/07/13 05:46:33;;;;;;;30.10;9.00;;;17.10;99.90;;;;;;5060623;28;20669;-61
2023/07/13 05:49:00;;;;;;;14.83;8.73;;;17.20;99.90;;;;;;5059764;28;20479;-61
2023/07/13 05:51:27;;;;;;;22.13;11.43;;;17.30;99.90;;;;;;5064498;28;20502;-61
2023/07/13 05:53:54;;;;;;;33.30;9.20;;;17.50;99.90;;;;;;5061397;28;21581;-61
2023/07/13 05:56:23;;;;;;;14.63;9.00;;;17.60;99.90;;;;;;5062518;28;20970;-61
2023/07/13 05:58:50;;;;;;;17.43;9.17;;;17.70;99.90;;;;;;5058271;28;20483;-60
2023/07/13 06:01:18;;;;;;;28.20;12.33;;;17.90;99.90;;;;;;5059612;28;20486;-61
2023/07/13 06:03:45;;;;;;;16.87;8.30;;;18.00;99.90;;;;;;5059135;28;20497;-61
2023/07/13 06:06:12;;;;;;;25.63;12.23;;;18.10;99.90;;;;;;5059599;28;20479;-61
2023/07/13 06:08:39;;;;;;;18.77;9.10;;;18.20;99.90;;;;;;5059245;28;20463;-61
2023/07/13 06:11:08;;;;;;;28.60;13.63;;;18.30;99.90;;;;;;5062840;28;20871;-61
2023/07/13 06:13:36;;;;;;;18.33;9.27;;;18.40;99.90;;;;;;5058781;28;21002;-61
2023/07/13 06:16:04;;;;;;;19.73;8.70;;;18.60;99.90;;;;;;5059522;28;20758;-61
2023/07/13 06:18:32;;;;;;;19.23;9.87;;;18.70;99.90;;;;;;5020718;28;20464;-61
2023/07/13 06:20:59;;;;;;;20.17;9.70;;;18.80;99.90;;;;;;5047369;28;20974;-61
2023/07/13 06:23:26;;;;;;;20.70;8.57;;;18.90;98.90;;;;;;5059180;28;20878;-61
2023/07/13 06:25:53;;;;;;;22.17;11.20;;;19.00;98.60;;;;;;5059023;28;22776;-61
2023/07/13 06:28:20;;;;;;;27.30;11.30;;;19.10;98.50;;;;;;5067269;28;20478;-61
2023/07/13 06:30:48;;;;;;;22.00;9.57;;;19.20;98.30;;;;;;5059207;28;20478;-61
2023/07/13 06:33:15;;;;;;;31.67;12.03;;;19.30;98.60;;;;;;5058813;28;21010;-61
2023/07/13 06:35:41;;;;;;;17.87;8.73;;;19.40;98.50;;;;;;5059216;28;20533;-61
2023/07/13 06:38:08;;;;;;;24.87;11.57;;;19.50;98.70;;;;;;5056728;28;20487;-61
2023/07/13 06:40:35;;;;;;;16.90;7.33;;;19.60;97.60;;;;;;5061494;28;20823;-61
2023/07/13 06:43:02;;;;;;;21.30;9.40;;;19.70;95.60;;;;;;5062497;28;20476;-61
2023/07/13 06:45:29;;;;;;;23.60;7.93;;;19.80;95.40;;;;;;5046964;28;20820;-61
2023/07/13 06:47:57;;;;;;;12.47;6.67;;;20.00;94.80;;;;;;5063248;28;20475;-61
2023/07/13 06:50:23;;;;;;;11.63;5.30;;;20.10;94.40;;;;;;5056877;28;20479;-61
2023/07/13 06:52:50;;;;;;;13.10;5.27;;;20.30;93.90;;;;;;5059192;28;20485;-61
2023/07/13 06:55:17;;;;;;;19.57;8.57;;;20.40;93.30;;;;;;5047413;28;20479;-61
2023/07/13 06:57:44;;;;;;;17.43;6.80;;;20.60;93.50;;;;;;5046896;28;20484;-61
2023/07/13 07:00:12;;;;;;;19.90;9.13;;;20.70;92.50;;;;;;5053871;28;20482;-61
2023/07/13 07:02:39;;;;;;;12.03;5.90;;;20.90;93.10;;;;;;5050368;28;20478;-61
2023/07/13 07:05:08;;;;;;;23.40;9.77;;;21.10;93.30;;;;;;5054769;28;20947;-61
2023/07/13 07:07:35;;;;;;;11.47;6.10;;;21.40;93.20;;;;;;5057526;28;20474;-62
2023/07/13 07:10:02;;;;;;;10.90;5.13;;;21.60;92.50;;;;;;5066146;28;20467;-62
2023/07/13 07:12:30;;;;;;;12.03;5.60;;;21.90;92.20;;;;;;5058112;28;20486;-61
2023/07/13 07:14:58;;;;;;;14.60;7.50;;;22.20;91.70;;;;;;5059399;28;20868;-61
2023/07/13 07:17:26;;;;;;;16.70;8.33;;;22.40;91.30;;;;;;5057609;28;20995;-62
2023/07/13 07:19:53;;;;;;;10.70;5.80;;;22.60;91.30;;;;;;5063261;28;20855;-61
2023/07/13 07:22:22;;;;;;;13.20;7.20;;;22.70;89.80;;;;;;5060875;28;20517;-61
2023/07/13 07:24:49;;;;;;;10.13;5.93;;;22.70;89.70;;;;;;5063166;28;20477;-62
2023/07/13 07:27:16;;;;;;;14.00;7.57;;;22.70;88.40;;;;;;5058086;28;20489;-61
2023/07/13 07:29:42;;;;;;;10.53;6.10;;;22.70;89.10;;;;;;5065633;28;20474;-62
2023/07/13 07:32:09;;;;;;;17.33;9.00;;;22.70;87.90;;;;;;5056245;28;20486;-61
2023/07/13 07:34:36;;;;;;;13.33;6.20;;;23.00;88.60;;;;;;5057040;28;20481;-62
2023/07/13 07:37:03;;;;;;;26.50;8.53;;;23.10;86.40;;;;;;5042436;28;20471;-62
2023/07/13 07:39:32;;;;;;;10.80;6.13;;;23.10;88.00;;;;;;5060720;28;20863;-62
2023/07/13 07:41:59;;;;;;;10.83;6.17;;;23.30;87.80;;;;;;5056707;28;20461;-61
2023/07/13 07:44:26;;;;;;;9.20;5.47;;;23.30;85.90;;;;;;5061182;28;20560;-62
2023/07/13 07:46:53;;;;;;;13.13;6.87;;;23.30;87.10;;;;;;5055085;28;20576;-62
2023/07/13 07:49:20;;;;;;;9.67;5.43;;;23.50;89.80;;;;;;5044897;28;21051;-62
2023/07/13 07:51:47;;;;;;;8.90;4.93;;;23.50;86.60;;;;;;5033149;28;20863;-62
2023/07/13 07:54:14;;;;;;;18.13;9.40;;;23.60;86.70;;;;;;5038214;28;20945;-62
2023/07/13 07:56:42;;;;;;;15.90;5.80;;;23.70;86.30;;;;;;5032946;28;20483;-62
2023/07/13 07:59:10;;;;;;;22.53;8.93;;;23.70;83.00;;;;;;5038111;28;20757;-62
2023/07/13 08:01:37;;;;;;;18.93;7.20;;;;;;;;;;5033302;28;20481;-62
2023/07/13 08:04:04;;;;;;;15.47;6.20;;;24.00;84.70;;;;;;5027552;28;20854;-62
2023/07/13 08:06:33;;;;;;;19.37;8.53;;;23.90;82.40;;;;;;5023280;28;20503;-62
2023/07/13 08:09:01;;;;;;;20.73;6.77;;;23.70;83.00;;;;;;5048301;28;20974;-62
2023/07/13 08:11:28;;;;;;;24.93;5.77;;;23.70;82.40;;;;;;5057065;28;21038;-62
2023/07/13 08:13:56;;;;;;;19.80;7.23;;;26.00;84.80;;;;;;5063797;28;20454;-61
2023/07/13 08:16:24;;;;;;;15.53;5.23;;;23.70;82.10;;;;;;5056084;28;20480;-62
2023/07/13 08:18:51;;;;;;;15.37;5.83;;;23.50;83.00;;;;;;5054210;28;20489;-62
2023/07/13 08:21:19;;;;;;;23.13;9.20;;;23.60;84.50;;;;;;5036209;28;20475;-62
2023/07/13 08:23:46;;;;;;;14.27;5.20;;;23.50;82.60;;;;;;5034034;28;20484;-62
2023/07/13 08:26:13;;;;;;;16.90;4.40;;;23.50;83.60;;;;;;5033520;28;20804;-61
2023/07/13 08:28:41;;;;;;;33.83;7.67;;;;;;;;;;5034104;28;20480;-62
2023/07/13 08:31:10;;;;;;;30.03;9.83;;;23.80;82.40;;;;;;5025142;28;20472;-62
2023/07/13 08:33:38;;;;;;;20.20;5.57;;;23.70;82.40;;;;;;5034644;28;20453;-62
2023/07/13 08:36:06;;;;;;;17.10;7.50;;;23.90;82.30;;;;;;5031246;28;20585;-62
2023/07/13 08:38:33;;;;;;;16.43;7.63;;;24.00;80.90;;;;;;5016703;28;20513;-61
2023/07/13 08:41:00;;;;;;;18.13;5.90;;;24.00;82.90;;;;;;5038046;28;20477;-61
2023/07/13 08:43:29;;;;;;;11.70;5.33;;;24.00;81.70;;;;;;5027995;28;20511;-61
2023/07/13 08:46:01;;;;;;;21.90;7.43;;;24.10;80.40;;;;;;5026261;28;20487;-62
2023/07/13 08:48:33;;;;;;;11.60;5.47;;;24.20;81.50;;;;;;5019006;28;20489;-62
2023/07/13 08:51:10;;;;;;;17.97;5.37;;;24.20;80.30;;;;;;5022249;28;20480;-62
2023/07/13 08:53:40;;;;;;;15.47;5.70;;;24.30;79.10;;;;;;5033982;28;20480;-62
2023/07/13 08:56:14;;;;;;;14.77;7.37;;;24.30;80.40;;;;;;5018278;28;20488;-62
2023/07/13 08:58:42;;;;;;;12.87;4.87;;;24.40;80.00;;;;;;5034923;28;20938;-62
2023/07/13 09:01:16;;;;;;;25.43;11.53;;;24.70;79.60;;;;;;5017111;28;20481;-62
2023/07/13 09:03:52;;;;;;;13.13;5.70;;;24.90;79.00;;;;;;5025280;28;21098;-62
2023/07/13 09:06:23;;;;;;;16.57;6.23;;;25.00;81.50;;;;;;5019991;28;20648;-62
2023/07/13 09:08:59;;;;;;;13.00;5.50;;;25.20;78.30;;;;;;5026349;28;21131;-62
2023/07/13 09:11:43;;;;;;;14.43;4.80;;;25.20;77.10;;;;;;5024513;28;20494;-62
2023/07/13 09:14:34;;;;;;;20.97;11.43;;;25.00;76.50;;;;;;5049129;28;20470;-62
2023/07/13 09:17:03;;;;;;;9.43;5.60;;;24.70;76.40;;;;;;5048593;28;20461;-62
2023/07/13 09:19:34;;;;;;;16.93;6.00;;;24.70;76.90;;;;;;5062048;28;20573;-62
2023/07/13 09:22:02;;;;;;;11.33;6.40;;;24.70;78.00;;;;;;5065411;28;20484;-62
2023/07/13 09:24:37;;;;;;;10.13;5.83;;;24.70;78.20;;;;;;5058722;28;20486;-62
2023/07/13 09:27:17;;;;;;;12.07;5.37;;;24.90;78.40;;;;;;5059303;28;20479;-63
2023/07/13 09:29:49;;;;;;;9.03;4.93;;;25.00;78.20;;;;;;5041192;28;20471;-63
2023/07/13 09:32:20;;;;;;;14.83;6.87;;;25.00;75.80;;;;;;5020152;28;20903;-62
2023/07/13 09:34:54;;;;;;;6.50;3.47;;;25.10;78.00;;;;;;5028467;28;20483;-61
2023/07/13 09:37:22;;;;;;;15.87;8.43;;;25.10;75.10;;;;;;5018638;28;20446;-62
2023/07/13 09:39:52;;;;;;;6.40;3.80;;;24.70;74.50;;;;;;5036788;28;20586;-63
2023/07/13 09:42:21;;;;;;;10.47;6.40;;;25.10;74.80;;;;;;5030569;28;20500;-62
2023/07/13 09:44:54;;;;;;;10.67;4.70;;;25.10;73.30;;;;;;5040399;28;20488;-62
2023/07/13 09:47:25;;;;;;;12.70;5.00;;;25.10;71.70;;;;;;5046860;28;20482;-63
2023/07/13 09:49:58;;;;;;;8.43;4.90;;;25.20;74.10;;;;;;5039023;28;20854;-62
2023/07/13 09:52:27;;;;;;;12.37;4.10;;;25.70;76.30;;;;;;5021623;28;20481;-62
2023/07/13 09:54:58;;;;;;;10.97;5.10;;;25.80;74.50;;;;;;5025927;28;20836;-62
2023/07/13 09:57:27;;;;;;;6.70;3.67;;;26.00;71.30;;;;;;5026688;28;20532;-62
2023/07/13 09:59:58;;;;;;;7.83;4.03;;;26.10;73.60;;;;;;5026544;28;20492;-62
2023/07/13 10:02:28;;;;;;;5.03;4.13;;;26.00;72.70;;;;;;5027408;28;20857;-62
2023/07/13 10:05:03;;;;;;;14.67;3.93;;;26.10;72.20;;;;;;5020019;28;21013;-62
2023/07/13 10:07:30;;;;;;;6.43;4.70;;;26.00;73.90;;;;;;5019693;28;20484;-62
2023/07/13 10:10:00;;;;;;;8.80;5.00;;;25.90;71.60;;;;;;5026904;28;20710;-62
2023/07/13 10:12:28;;;;;;;8.90;5.67;;;25.90;72.20;;;;;;5033293;28;20481;-62
2023/07/13 10:14:58;;;;;;;8.43;5.03;;;25.90;72.60;;;;;;5018903;28;20493;-62
2023/07/13 10:17:30;;;;;;;7.10;3.10;;;26.10;72.00;;;;;;5037146;28;20829;-62
2023/07/13 10:20:04;;;;;;;6.77;4.27;;;26.40;72.80;;;;;;5021276;28;20815;-62
2023/07/13 10:22:38;;;;;;;8.33;5.53;;;26.40;70.60;;;;;;5025125;28;20504;-63
2023/07/13 10:25:16;;;;;;;8.40;5.40;;;26.50;69.90;;;;;;5020768;28;20497;-62
2023/07/13 10:27:44;;;;;;;8.60;4.83;;;26.50;71.00;;;;;;5010482;28;20959;-62
2023/07/13 10:30:18;;;;;;;13.43;6.20;;;26.60;70.30;;;;;;5015846;28;20474;-63
2023/07/13 10:32:46;;;;;;;5.40;3.40;;;26.40;70.80;;;;;;5015528;28;20988;-63
2023/07/13 10:35:17;;;;;;;8.80;5.47;;;26.10;69.30;;;;;;5011681;28;20464;-63
2023/07/13 10:37:50;;;;;;;7.70;4.97;;;26.30;71.30;;;;;;5009560;28;20476;-62
2023/07/13 10:40:22;;;;;;;10.63;5.80;;;26.40;71.10;;;;;;5017042;28;20462;-62
2023/07/13 10:42:52;;;;;;;11.83;3.97;;;26.50;68.60;;;;;;5021408;28;20481;-62
2023/07/13 10:45:23;;;;;;;9.30;5.63;;;26.40;70.70;;;;;;5054493;28;20493;-62
2023/07/13 10:47:52;;;;;;;7.10;3.90;;;26.30;69.40;;;;;;5060266;28;20461;-62
2023/07/13 10:50:24;;;;;;;9.20;5.70;;;26.20;70.60;;;;;;5054992;28;20471;-61
2023/07/13 10:52:54;;;;;;;10.27;6.70;;;25.90;71.00;;;;;;5057275;28;20508;-62
2023/07/13 10:55:41;;;;;;;13.90;4.90;;;25.70;70.90;;;;;;5064229;28;20987;-62
2023/07/13 10:58:15;;;;;;;13.07;6.07;;;;;;;;;;5056532;28;21013;-62
2023/07/13 11:00:49;;;;;;;11.13;5.97;;;25.60;72.10;;;;;;5028137;28;20943;-61
2023/07/13 11:03:19;;;;;;;15.40;7.13;;;25.60;71.70;;;;;;5023682;28;21050;-61
2023/07/13 11:05:52;;;;;;;11.30;4.50;;;25.60;71.90;;;;;;5042296;28;20475;-62
2023/07/13 11:08:32;;;;;;;11.00;7.00;;;25.60;72.20;;;;;;5029324;28;20476;-62
2023/07/13 11:11:00;;;;;;;9.70;4.90;;;25.70;71.80;;;;;;5024740;28;20952;-62
2023/07/13 11:13:39;;;;;;;6.37;4.10;;;25.80;72.90;;;;;;5013598;28;21506;-63
2023/07/13 11:16:14;;;;;;;10.97;6.70;;;25.80;69.80;;;;;;5026078;28;20481;-62
2023/07/13 11:18:42;;;;;;;10.23;5.47;;;25.70;68.60;;;;;;5020937;28;20695;-63
2023/07/13 11:21:20;;;;;;;14.27;7.70;;;25.60;69.40;;;;;;5035671;28;20481;-63
2023/07/13 11:23:54;;;;;;;19.13;5.63;;;25.50;70.40;;;;;;5027594;28;20479;-63
2023/07/13 11:26:40;;;;;;;11.60;5.33;;;25.50;69.50;;;;;;5035246;28;21111;-63
2023/07/13 11:29:10;;;;;;;19.17;8.87;;;25.50;72.30;;;;;;5032198;28;21127;-62
2023/07/13 11:31:38;;;;;;;10.07;5.83;;;25.60;71.10;;;;;;5033766;28;20472;-63
2023/07/13 11:34:14;;;;;;;8.57;5.17;;;25.50;71.40;;;;;;5033475;28;20490;-63
2023/07/13 11:36:45;;;;;;;12.30;6.60;;;25.40;71.90;;;;;;5030390;28;20514;-62
2023/07/13 11:39:21;;;;;;;18.23;9.13;;;25.60;71.90;;;;;;5051848;28;20836;-63
2023/07/13 11:41:52;;;;;;;12.67;6.37;;;25.70;72.50;;;;;;5014734;28;20991;-63
2023/07/13 11:44:21;;;;;;;15.83;7.80;;;25.60;72.60;;;;;;5019993;28;20488;-62
2023/07/13 11:46:51;;;;;;;15.63;6.30;;;25.80;72.80;;;;;;5024298;28;20483;-64
2023/07/13 11:49:19;;;;;;;13.77;7.40;;;23.40;70.30;;;;;;5024057;28;20481;-62
2023/07/13 11:51:48;;;;;;;9.50;4.77;;;;;;;;;;5031154;28;20508;-63
2023/07/13 11:54:26;;;;;;;24.93;10.10;;;26.30;68.50;;;;;;5048780;28;20883;-63
2023/07/13 11:56:53;;;;;;;9.37;5.23;;;26.50;70.30;;;;;;5027773;28;20482;-63
2023/07/13 11:59:21;;;;;;;15.60;6.50;;;26.20;68.60;;;;;;5061205;28;20533;-63
2023/07/13 12:01:53;;;;;;;13.50;6.80;;;26.50;69.20;;;;;;5056840;28;20969;-62
2023/07/13 12:04:25;;;;;;;14.50;6.67;;;26.40;69.40;;;;;;5063220;28;20593;-63
2023/07/13 12:07:05;;;;;;;9.93;5.20;;;26.50;69.20;;;;;;5056046;28;20888;-63
2023/07/13 12:09:36;;;;;;;18.70;7.50;;;26.40;68.20;;;;;;5059266;28;20488;-63
2023/07/13 12:12:05;;;;;;;15.37;4.67;;;26.40;67.50;;;;;;5058015;28;20482;-63
2023/07/13 12:14:34;;;;;;;18.00;6.87;;;26.20;67.50;;;;;;5055690;28;20843;-63
2023/07/13 12:17:01;;;;;;;10.60;5.70;;;26.40;66.00;;;;;;5058356;28;20456;-63
2023/07/13 12:19:29;;;;;;;13.20;5.30;;;26.40;65.30;;;;;;5055127;28;20643;-63
2023/07/13 12:21:59;;;;;;;10.60;4.90;;;26.40;64.90;;;;;;5057969;28;20467;-64
2023/07/13 12:24:28;;;;;;;7.23;3.83;;;26.20;65.10;;;;;;5057429;28;20931;-63
2023/07/13 12:27:00;;;;;;;11.90;5.60;;;26.10;65.40;;;;;;5066132;28;20852;-63
2023/07/13 12:29:27;;;;;;;14.63;4.97;;;25.90;66.70;;;;;;5062534;28;20852;-63
2023/07/13 12:31:55;;;;;;;14.27;4.20;;;25.90;67.00;;;;;;5065584;28;20884;-65
2023/07/13 12:34:24;;;;;;;5.30;3.97;;;25.70;67.10;;;;;;5057737;28;20490;-62
2023/07/13 12:36:53;;;;;;;12.13;6.43;;;25.70;68.50;;;;;;5068968;28;20485;-62
2023/07/13 12:39:25;;;;;;;10.10;3.10;;;25.70;67.60;;;;;;5058918;28;20484;-62
2023/07/13 12:41:54;;;;;;;8.90;5.30;;;25.80;67.70;;;;;;5066565;28;20470;-62
2023/07/13 12:44:26;;;;;;;14.33;5.60;;;25.70;67.70;;;;;;5060997;28;20525;-62
2023/07/13 12:46:56;;;;;;;12.00;6.33;;;25.90;68.60;;;;;;5058678;28;20469;-63